Terminal Aerodrome Forecast
Issued by NWS

Home | Current Version | Previous Version | Text Only | Print | Product List | Glossary On
Versions: 1 2 3 4 5 6 7 8 9 10 11 12 13 14 15 16 17 18 19 20 21 22 23 24 25 26 27 28 29 30 31 32 33
000
FTUS43 KILX 232338
TAFBMI
TAF
KBMI 232338Z 2400/2424 08014KT P6SM VCSH BKN020
     FM240500 13009KT P6SM VCSH BKN025 WS020/17035KT
     FM240900 18013G23KT P6SM BKN025
     FM241400 19013G26KT P6SM VCTS BKN015CB
     FM241800 22016G28KT P6SM BKN015
     FM242000 23016G29KT P6SM SCT025=

USA.gov is the U.S. government's official web portal to all federal, state and local government web resources and services.